createdAt,value
2018-08-24T00:00:28.690Z,1004.33
2018-08-24T00:01:28.679Z,1004.25
2018-08-24T00:02:28.662Z,1004.25
2018-08-24T00:03:28.646Z,1004.29
2018-08-24T00:04:28.630Z,1004.28
2018-08-24T00:05:28.619Z,1004.30
2018-08-24T00:06:28.610Z,1004.23
2018-08-24T00:07:28.733Z,1004.20
2018-08-24T00:08:28.585Z,1004.25
2018-08-24T00:09:28.559Z,1004.26
2018-08-24T00:10:28.546Z,1004.18
2018-08-24T00:11:28.530Z,1004.15
2018-08-24T00:12:28.521Z,1004.10
2018-08-24T00:13:28.502Z,1004.12
2018-08-24T00:14:28.487Z,1004.12
2018-08-24T00:15:28.467Z,1004.09
2018-08-24T00:16:28.459Z,1004.07
2018-08-24T00:17:28.436Z,1004.09
2018-08-24T00:18:28.425Z,1004.09
2018-08-24T00:19:28.405Z,1004.02
2018-08-24T00:20:28.390Z,1004.03
2018-08-24T00:21:28.377Z,1004.00
2018-08-24T00:22:28.360Z,1003.99
2018-08-24T00:23:28.350Z,1003.96
2018-08-24T00:24:28.330Z,1003.98
2018-08-24T00:25:28.314Z,1003.92
2018-08-24T00:26:28.302Z,1003.91
2018-08-24T00:27:28.282Z,1003.93
2018-08-24T00:28:28.277Z,1003.94
2018-08-24T00:29:28.252Z,1003.97
2018-08-24T00:30:28.237Z,1004.04
2018-08-24T00:31:28.230Z,1004.06
2018-08-24T00:32:28.207Z,1004.06
2018-08-24T00:33:28.196Z,1004.09
2018-08-24T00:34:28.180Z,1004.06
2018-08-24T00:35:28.162Z,1004.06
2018-08-24T00:36:28.149Z,1004.08
2018-08-24T00:37:28.134Z,1004.09
2018-08-24T00:38:28.117Z,1004.03
2018-08-24T00:39:28.111Z,1004.04
2018-08-24T00:40:28.085Z,1004.07
2018-08-24T00:41:28.079Z,1004.09
2018-08-24T00:42:28.055Z,1004.11
2018-08-24T00:43:28.038Z,1004.10
2018-08-24T00:44:28.023Z,1004.12
2018-08-24T00:45:28.015Z,1004.03
2018-08-24T00:46:28.001Z,1003.97
2018-08-24T00:47:27.978Z,1004.04
2018-08-24T00:48:27.964Z,1004.04
2018-08-24T00:49:27.950Z,1004.06
2018-08-24T00:50:27.933Z,1004.05
2018-08-24T00:51:27.917Z,1004.05
2018-08-24T00:52:27.905Z,1004.03
2018-08-24T00:53:27.887Z,1004.04
2018-08-24T00:54:27.879Z,1004.04
2018-08-24T00:55:27.857Z,1004.03
2018-08-24T00:56:27.844Z,1003.98
2018-08-24T00:57:27.825Z,1003.97
2018-08-24T00:58:27.811Z,1003.98
2018-08-24T00:59:27.795Z,1003.98
2018-08-24T01:00:27.782Z,1004.04
2018-08-24T01:01:27.764Z,1004.02
2018-08-24T01:02:27.748Z,1004.03
2018-08-24T01:03:27.735Z,1004.01
2018-08-24T01:04:27.716Z,1004.02
2018-08-24T01:05:27.702Z,1004.00
2018-08-24T01:06:27.704Z,1004.00
2018-08-24T01:07:27.730Z,1004.02
2018-08-24T01:08:27.656Z,1004.05
2018-08-24T01:09:27.642Z,1003.99
2018-08-24T01:10:27.624Z,1004.04
2018-08-24T01:11:27.606Z,1004.08
2018-08-24T01:12:27.593Z,1004.06
2018-08-24T01:13:27.577Z,1004.01
2018-08-24T01:14:27.566Z,1004.04
2018-08-24T01:15:27.546Z,1004.02
2018-08-24T01:16:27.536Z,1004.01
2018-08-24T01:17:27.514Z,1004.00
2018-08-24T01:18:27.505Z,1004.00
2018-08-24T01:19:27.482Z,1004.00
2018-08-24T01:20:27.469Z,1003.99
2018-08-24T01:21:27.452Z,1003.99
2018-08-24T01:22:27.437Z,1003.94
2018-08-24T01:23:27.423Z,1003.93
2018-08-24T01:24:27.407Z,1003.91
2018-08-24T01:25:27.388Z,1003.87
2018-08-24T01:26:27.373Z,1003.88
2018-08-24T01:27:27.354Z,1003.90
2018-08-24T01:28:27.343Z,1003.87
2018-08-24T01:29:27.332Z,1003.84
2018-08-24T01:30:27.313Z,1003.82
2018-08-24T01:31:27.295Z,1003.84
2018-08-24T01:32:27.279Z,1003.82
2018-08-24T01:33:27.263Z,1003.84
2018-08-24T01:34:27.247Z,1003.84
2018-08-24T01:35:27.231Z,1003.88
2018-08-24T01:36:27.216Z,1003.91
2018-08-24T01:37:27.198Z,1003.91
2018-08-24T01:38:27.188Z,1003.93
2018-08-24T01:39:27.165Z,1003.86
2018-08-24T01:40:27.150Z,1003.87
2018-08-24T01:41:27.136Z,1003.87
2018-08-24T01:42:27.124Z,1003.91
2018-08-24T01:43:27.103Z,1003.94
2018-08-24T01:44:27.088Z,1003.94
2018-08-24T01:45:27.073Z,1003.95
2018-08-24T01:46:27.059Z,1003.92
2018-08-24T01:47:27.041Z,1003.89
2018-08-24T01:48:27.025Z,1003.91
2018-08-24T01:49:27.009Z,1003.92
2018-08-24T01:50:26.995Z,1003.93
2018-08-24T01:51:26.985Z,1003.95
2018-08-24T01:52:26.962Z,1003.94
2018-08-24T01:53:26.954Z,1003.93
2018-08-24T01:54:26.934Z,1003.90
2018-08-24T01:55:26.918Z,1003.87
2018-08-24T01:56:26.905Z,1003.88
2018-08-24T01:57:26.887Z,1003.88
2018-08-24T01:58:26.865Z,1003.92
2018-08-24T01:59:26.850Z,1003.92
2018-08-24T02:00:26.846Z,1003.90
2018-08-24T02:01:26.820Z,1003.89
2018-08-24T02:02:26.805Z,1003.89
2018-08-24T02:03:26.785Z,1003.92
2018-08-24T02:04:26.770Z,1003.93
2018-08-24T02:05:26.754Z,1003.89
2018-08-24T02:06:26.742Z,1003.84
2018-08-24T02:07:26.723Z,1003.86
2018-08-24T02:08:26.711Z,1003.84
2018-08-24T02:09:26.693Z,1003.89
2018-08-24T02:10:26.679Z,1003.87
2018-08-24T02:11:26.660Z,1003.85
2018-08-24T02:12:26.648Z,1003.83
2018-08-24T02:13:26.629Z,1003.86
2018-08-24T02:14:26.677Z,1003.86
2018-08-24T02:15:26.595Z,1003.87
2018-08-24T02:16:26.582Z,1003.91
2018-08-24T02:17:26.565Z,1003.89
2018-08-24T02:18:26.550Z,1003.90
2018-08-24T02:19:26.536Z,1003.90
2018-08-24T02:20:26.520Z,1003.87
2018-08-24T02:21:26.505Z,1003.85
2018-08-24T02:22:26.486Z,1003.81
2018-08-24T02:23:26.471Z,1003.83
2018-08-24T02:24:26.468Z,1003.82
2018-08-24T02:25:26.441Z,1003.81
2018-08-24T02:26:26.448Z,1003.84
2018-08-24T02:27:26.406Z,1003.83
2018-08-24T02:28:26.390Z,1003.81
2018-08-24T02:29:26.374Z,1003.83
2018-08-24T02:30:26.361Z,1003.82
2018-08-24T02:31:26.341Z,1003.81
2018-08-24T02:32:26.326Z,1003.81
2018-08-24T02:33:26.310Z,1003.79
2018-08-24T02:34:26.299Z,1003.80
2018-08-24T02:35:26.278Z,1003.79
2018-08-24T02:36:26.268Z,1003.78
2018-08-24T02:37:26.248Z,1003.80
2018-08-24T02:38:26.231Z,1003.78
2018-08-24T02:39:26.215Z,1003.77
2018-08-24T02:40:26.221Z,1003.84
2018-08-24T02:41:26.186Z,1003.80
2018-08-24T02:42:26.172Z,1003.86
2018-08-24T02:43:26.152Z,1003.90
2018-08-24T02:44:26.146Z,1003.90
2018-08-24T02:45:26.121Z,1003.89
2018-08-24T02:46:26.167Z,1003.83
2018-08-24T02:47:26.090Z,1003.91
2018-08-24T02:48:26.074Z,1003.87
2018-08-24T02:49:26.065Z,1003.91
2018-08-24T02:50:26.042Z,1003.91
2018-08-24T02:51:26.026Z,1003.89
2018-08-24T02:52:26.012Z,1003.85
2018-08-24T02:53:25.995Z,1003.84
2018-08-24T02:54:25.979Z,1003.85
2018-08-24T02:55:25.962Z,1003.82
2018-08-24T02:56:25.949Z,1003.82
2018-08-24T02:57:25.932Z,1003.83
2018-08-24T02:58:25.930Z,1003.82
2018-08-24T02:59:25.900Z,1003.84
2018-08-24T03:00:25.889Z,1003.87
2018-08-24T03:01:25.870Z,1003.81
2018-08-24T03:02:25.853Z,1003.80
2018-08-24T03:03:25.870Z,1003.78
2018-08-24T03:04:25.825Z,1003.79
2018-08-24T03:05:25.902Z,1003.76
2018-08-24T03:06:25.792Z,1003.77
2018-08-24T03:07:25.774Z,1003.76
2018-08-24T03:08:25.852Z,1003.78
2018-08-24T03:09:25.742Z,1003.79
2018-08-24T03:10:25.729Z,1003.78
2018-08-24T03:11:25.711Z,1003.76
2018-08-24T03:12:25.697Z,1003.75
2018-08-24T03:13:25.682Z,1003.80
2018-08-24T03:14:25.665Z,1003.79
2018-08-24T03:15:25.654Z,1003.82
2018-08-24T03:16:25.686Z,1003.80
2018-08-24T03:17:25.616Z,1003.76
2018-08-24T03:18:25.602Z,1003.82
2018-08-24T03:19:25.607Z,1003.85
2018-08-24T03:20:25.570Z,1003.83
2018-08-24T03:21:25.555Z,1003.84
2018-08-24T03:22:25.538Z,1003.87
2018-08-24T03:23:25.524Z,1003.84
2018-08-24T03:24:25.516Z,1003.86
2018-08-24T03:25:25.495Z,1003.83
2018-08-24T03:26:25.476Z,1003.84
2018-08-24T03:27:25.460Z,1003.81
2018-08-24T03:28:25.443Z,1003.85
2018-08-24T03:29:25.430Z,1003.83
2018-08-24T03:30:25.415Z,1003.80
2018-08-24T03:31:25.397Z,1003.81
2018-08-24T03:32:25.382Z,1003.81
2018-08-24T03:33:25.385Z,1003.77
2018-08-24T03:34:25.350Z,1003.78
2018-08-24T03:35:25.340Z,1003.77
2018-08-24T03:36:25.320Z,1003.78
2018-08-24T03:37:25.302Z,1003.79
2018-08-24T03:38:25.316Z,1003.80
2018-08-24T03:39:25.275Z,1003.81
2018-08-24T03:40:25.256Z,1003.82
2018-08-24T03:41:25.240Z,1003.81
2018-08-24T03:42:25.225Z,1003.80
2018-08-24T03:43:25.212Z,1003.72
2018-08-24T03:44:25.200Z,1003.77
2018-08-24T03:45:25.180Z,1003.79
2018-08-24T03:46:25.168Z,1003.84
2018-08-24T03:47:25.146Z,1003.85
2018-08-24T03:48:25.130Z,1003.89
2018-08-24T03:49:25.116Z,1003.93
2018-08-24T03:50:25.100Z,1003.92
2018-08-24T03:51:25.082Z,1003.92
2018-08-24T03:52:25.070Z,1003.92
2018-08-24T03:53:25.073Z,1003.95
2018-08-24T03:54:25.044Z,1003.99
2018-08-24T03:55:25.021Z,1003.99
2018-08-24T03:56:25.003Z,1003.98
2018-08-24T03:57:24.993Z,1003.98
2018-08-24T03:58:24.978Z,1004.05
2018-08-24T03:59:24.962Z,1004.07
2018-08-24T04:00:24.940Z,1004.02
2018-08-24T04:01:24.926Z,1003.98
2018-08-24T04:02:24.911Z,1003.98
2018-08-24T04:03:24.890Z,1004.01
2018-08-24T04:04:24.877Z,1003.99
2018-08-24T04:05:24.860Z,1003.97
2018-08-24T04:06:24.845Z,1003.97
2018-08-24T04:07:24.828Z,1004.00
2018-08-24T04:08:24.816Z,1004.01
2018-08-24T04:09:24.796Z,1004.06
2018-08-24T04:10:24.782Z,1004.09
2018-08-24T04:11:24.769Z,1004.07
2018-08-24T04:12:24.749Z,1004.05
2018-08-24T04:13:24.738Z,1004.08
2018-08-24T04:14:24.724Z,1004.04
2018-08-24T04:15:24.701Z,1004.06
2018-08-24T04:16:24.695Z,1004.06
2018-08-24T04:17:24.673Z,1004.08
2018-08-24T04:18:24.654Z,1004.13
2018-08-24T04:19:24.674Z,1004.14
2018-08-24T04:20:24.622Z,1004.14
2018-08-24T04:21:24.606Z,1004.14
2018-08-24T04:22:24.590Z,1004.09
2018-08-24T04:23:24.574Z,1004.13
2018-08-24T04:24:24.570Z,1004.12
2018-08-24T04:25:24.542Z,1004.12
2018-08-24T04:26:24.528Z,1004.12
2018-08-24T04:27:24.509Z,1004.10
2018-08-24T04:28:24.502Z,1004.13
2018-08-24T04:29:24.479Z,1004.13
2018-08-24T04:30:24.462Z,1004.14
2018-08-24T04:31:24.448Z,1004.15
2018-08-24T04:32:24.433Z,1004.14
2018-08-24T04:33:24.418Z,1004.17
2018-08-24T04:34:24.398Z,1004.20
2018-08-24T04:35:24.386Z,1004.19
2018-08-24T04:36:24.368Z,1004.19
2018-08-24T04:37:24.352Z,1004.17
2018-08-24T04:38:24.345Z,1004.15
2018-08-24T04:39:24.320Z,1004.12
2018-08-24T04:40:24.423Z,1004.17
2018-08-24T04:41:24.302Z,1004.16
2018-08-24T04:42:24.272Z,1004.20
2018-08-24T04:43:24.257Z,1004.16
2018-08-24T04:44:24.240Z,1004.19
2018-08-24T04:45:24.251Z,1004.22
2018-08-24T04:46:24.222Z,1004.22
2018-08-24T04:47:24.192Z,1004.22
2018-08-24T04:48:24.176Z,1004.22
2018-08-24T04:49:24.163Z,1004.22
2018-08-24T04:50:24.148Z,1004.25
2018-08-24T04:51:24.197Z,1004.23
2018-08-24T04:52:24.112Z,1004.22
2018-08-24T04:53:24.098Z,1004.21
2018-08-24T04:54:24.085Z,1004.18
2018-08-24T04:55:24.069Z,1004.15
2018-08-24T04:56:24.057Z,1004.15
2018-08-24T04:57:24.032Z,1004.11
2018-08-24T04:58:24.023Z,1004.11
2018-08-24T04:59:24.002Z,1004.07
2018-08-24T05:00:24.027Z,1004.11
2018-08-24T05:01:23.971Z,1004.06
2018-08-24T05:02:23.951Z,1004.08
2018-08-24T05:03:23.942Z,1004.09
2018-08-24T05:04:23.919Z,1004.09
2018-08-24T05:05:23.903Z,1004.10
2018-08-24T05:06:23.885Z,1004.07
2018-08-24T05:07:23.868Z,1004.04
2018-08-24T05:08:23.856Z,1004.13
2018-08-24T05:09:23.839Z,1004.12
2018-08-24T05:10:23.823Z,1004.09
2018-08-24T05:11:23.806Z,1004.10
2018-08-24T05:12:23.790Z,1004.05
2018-08-24T05:13:23.775Z,1004.04
2018-08-24T05:14:23.765Z,1004.06
2018-08-24T05:15:23.741Z,1004.04
2018-08-24T05:16:23.727Z,1004.03
2018-08-24T05:17:23.709Z,1004.06
2018-08-24T05:18:23.693Z,1004.08
2018-08-24T05:19:23.684Z,1004.11
2018-08-24T05:20:23.663Z,1004.13
2018-08-24T05:21:23.668Z,1004.15
2018-08-24T05:22:23.632Z,1004.13
2018-08-24T05:23:23.617Z,1004.13
2018-08-24T05:24:23.596Z,1004.14
2018-08-24T05:25:23.592Z,1004.12
2018-08-24T05:26:23.566Z,1004.13
2018-08-24T05:27:23.545Z,1004.11
2018-08-24T05:28:23.531Z,1004.13
2018-08-24T05:29:23.514Z,1004.15
2018-08-24T05:30:23.498Z,1004.14
2018-08-24T05:31:23.485Z,1004.15
2018-08-24T05:32:23.472Z,1004.15
2018-08-24T05:33:23.452Z,1004.14
2018-08-24T05:34:23.436Z,1004.11
2018-08-24T05:35:23.416Z,1004.13
2018-08-24T05:36:23.401Z,1004.11
2018-08-24T05:37:23.384Z,1004.12
2018-08-24T05:38:23.368Z,1004.15
2018-08-24T05:39:23.358Z,1004.18
2018-08-24T05:40:23.339Z,1004.16
2018-08-24T05:41:23.382Z,1004.14
2018-08-24T05:42:23.308Z,1004.17
2018-08-24T05:43:23.285Z,1004.15
2018-08-24T05:44:23.279Z,1004.18
2018-08-24T05:45:23.254Z,1004.19
2018-08-24T05:46:23.243Z,1004.18
2018-08-24T05:47:23.225Z,1004.17
2018-08-24T05:48:23.216Z,1004.22
2018-08-24T05:49:23.195Z,1004.18
2018-08-24T05:50:23.178Z,1004.19
2018-08-24T05:51:23.163Z,1004.17
2018-08-24T05:52:23.140Z,1004.21
2018-08-24T05:53:23.126Z,1004.19
2018-08-24T05:54:23.112Z,1004.19
2018-08-24T05:55:23.093Z,1004.16
2018-08-24T05:56:23.076Z,1004.15
2018-08-24T05:57:23.064Z,1004.14
2018-08-24T05:58:23.045Z,1004.12
2018-08-24T05:59:23.030Z,1004.16
2018-08-24T06:00:23.013Z,1004.13
2018-08-24T06:01:23.007Z,1004.13
2018-08-24T06:02:22.984Z,1004.12
2018-08-24T06:03:22.964Z,1004.13
2018-08-24T06:04:22.949Z,1004.12
2018-08-24T06:05:22.933Z,1004.13
2018-08-24T06:06:22.915Z,1004.14
2018-08-24T06:07:22.902Z,1004.13
2018-08-24T06:08:22.885Z,1004.08
2018-08-24T06:09:22.866Z,1004.10
2018-08-24T06:10:22.857Z,1004.11
2018-08-24T06:11:22.836Z,1004.16
2018-08-24T06:12:22.818Z,1004.12
2018-08-24T06:13:22.805Z,1004.18
2018-08-24T06:14:22.788Z,1004.18
2018-08-24T06:15:22.769Z,1004.20
2018-08-24T06:16:22.752Z,1004.23
2018-08-24T06:17:22.739Z,1004.23
2018-08-24T06:18:22.730Z,1004.22
2018-08-24T06:19:22.703Z,1004.22
2018-08-24T06:20:22.693Z,1004.21
2018-08-24T06:21:22.675Z,1004.28
2018-08-24T06:22:22.654Z,1004.28
2018-08-24T06:23:22.638Z,1004.27
2018-08-24T06:24:22.679Z,1004.25
2018-08-24T06:25:22.607Z,1004.26
2018-08-24T06:26:22.595Z,1004.30
2018-08-24T06:27:22.571Z,1004.30
2018-08-24T06:28:22.555Z,1004.35
2018-08-24T06:29:22.540Z,1004.36
2018-08-24T06:30:22.525Z,1004.36
2018-08-24T06:31:22.508Z,1004.32
2018-08-24T06:32:22.493Z,1004.33
2018-08-24T06:33:22.487Z,1004.32
2018-08-24T06:34:22.461Z,1004.34
2018-08-24T06:35:22.442Z,1004.34
2018-08-24T06:36:22.426Z,1004.32
2018-08-24T06:37:22.412Z,1004.34
2018-08-24T06:38:22.421Z,1004.32
2018-08-24T06:39:22.378Z,1004.32
2018-08-24T06:40:22.361Z,1004.35
2018-08-24T06:41:22.345Z,1004.36
2018-08-24T06:42:22.333Z,1004.38
2018-08-24T06:43:22.313Z,1004.33
2018-08-24T06:44:22.299Z,1004.38
2018-08-24T06:45:22.281Z,1004.36
2018-08-24T06:46:22.264Z,1004.34
2018-08-24T06:47:22.428Z,1004.30
2018-08-24T06:48:22.231Z,1004.34
2018-08-24T06:49:22.216Z,1004.36
2018-08-24T06:50:22.202Z,1004.40
2018-08-24T06:51:22.181Z,1004.35
2018-08-24T06:52:22.168Z,1004.40
2018-08-24T06:53:22.335Z,1004.41
2018-08-24T06:54:22.140Z,1004.44
2018-08-24T06:55:22.115Z,1004.42
2018-08-24T06:56:22.097Z,1004.48
2018-08-24T06:57:22.089Z,1004.50
2018-08-24T06:58:22.066Z,1004.51
2018-08-24T06:59:22.053Z,1004.55
2018-08-24T07:00:22.033Z,1004.51
2018-08-24T07:01:22.019Z,1004.56
2018-08-24T07:02:22.003Z,1004.51
2018-08-24T07:03:21.987Z,1004.50
2018-08-24T07:04:21.970Z,1004.57
2018-08-24T07:05:21.953Z,1004.53
2018-08-24T07:06:21.938Z,1004.57
2018-08-24T07:07:21.925Z,1004.56
2018-08-24T07:08:21.912Z,1004.52
2018-08-24T07:09:21.889Z,1004.52
2018-08-24T07:10:21.876Z,1004.57
2018-08-24T07:11:21.858Z,1004.61
2018-08-24T07:12:21.851Z,1004.64
2018-08-24T07:13:21.863Z,1004.61
2018-08-24T07:14:21.808Z,1004.69
2018-08-24T07:15:21.800Z,1004.62
2018-08-24T07:16:21.774Z,1004.64
2018-08-24T07:17:21.758Z,1004.62
2018-08-24T07:18:21.752Z,1004.64
2018-08-24T07:19:21.726Z,1004.58
2018-08-24T07:20:21.713Z,1004.59
2018-08-24T07:21:21.703Z,1004.58
2018-08-24T07:22:21.687Z,1004.57
2018-08-24T07:23:21.671Z,1004.55
2018-08-24T07:24:21.646Z,1004.61
2018-08-24T07:25:21.632Z,1004.47
2018-08-24T07:26:21.620Z,1004.53
2018-08-24T07:27:21.600Z,1004.57
2018-08-24T07:28:21.582Z,1004.56
2018-08-24T07:29:21.564Z,1004.55
2018-08-24T07:30:21.548Z,1004.56
2018-08-24T07:31:21.542Z,1004.55
2018-08-24T07:32:21.515Z,1004.60
2018-08-24T07:33:21.499Z,1004.59
2018-08-24T07:34:21.483Z,1004.63
2018-08-24T07:35:21.464Z,1004.63
2018-08-24T07:36:21.450Z,1004.58
2018-08-24T07:37:21.434Z,1004.61
2018-08-24T07:38:21.418Z,1004.61
2018-08-24T07:39:21.527Z,1004.63
2018-08-24T07:40:21.384Z,1004.66
2018-08-24T07:41:21.392Z,1004.76
2018-08-24T07:42:21.354Z,1004.76
2018-08-24T07:43:21.339Z,1004.77
2018-08-24T07:44:21.329Z,1004.83
2018-08-24T07:45:21.305Z,1004.81
2018-08-24T07:46:21.293Z,1004.85
2018-08-24T07:47:21.278Z,1004.87
2018-08-24T07:48:21.258Z,1004.92
2018-08-24T07:49:21.242Z,1004.90
2018-08-24T07:50:21.226Z,1004.92
2018-08-24T07:51:21.227Z,1004.88
2018-08-24T07:52:21.202Z,1004.94
2018-08-24T07:53:21.188Z,1004.92
2018-08-24T07:54:21.161Z,1004.94
2018-08-24T07:55:21.149Z,1004.93
2018-08-24T07:56:21.129Z,1004.88
2018-08-24T07:57:21.115Z,1004.89
2018-08-24T07:58:21.097Z,1004.97
2018-08-24T07:59:21.078Z,1004.86
2018-08-24T08:00:21.071Z,1004.93
2018-08-24T08:01:21.047Z,1004.97
2018-08-24T08:02:21.030Z,1004.99
2018-08-24T08:03:21.016Z,1005.06
2018-08-24T08:04:21.001Z,1005.01
2018-08-24T08:05:21.064Z,1005.05
2018-08-24T08:06:20.966Z,1005.04
2018-08-24T08:07:20.949Z,1005.08
2018-08-24T08:08:20.946Z,1005.08
2018-08-24T08:09:20.916Z,1005.12
2018-08-24T08:10:20.904Z,1005.15
2018-08-24T08:11:20.891Z,1005.17
2018-08-24T08:12:20.867Z,1005.18
2018-08-24T08:13:20.858Z,1005.18
2018-08-24T08:14:20.835Z,1005.24
2018-08-24T08:15:20.818Z,1005.15
2018-08-24T08:16:20.800Z,1005.27
2018-08-24T08:17:20.784Z,1005.27
2018-08-24T08:18:20.879Z,1005.28
2018-08-24T08:19:20.751Z,1005.30
2018-08-24T08:20:20.743Z,1005.28
2018-08-24T08:21:20.718Z,1005.28
2018-08-24T08:22:20.703Z,1005.33
2018-08-24T08:23:20.687Z,1005.37
2018-08-24T08:24:20.669Z,1005.44
2018-08-24T08:25:20.668Z,1005.40
2018-08-24T08:26:20.639Z,1005.36
2018-08-24T08:27:20.619Z,1005.37
2018-08-24T08:28:20.614Z,1005.32
2018-08-24T08:29:20.593Z,1005.35
2018-08-24T08:30:20.571Z,1005.37
2018-08-24T08:31:20.557Z,1005.39
2018-08-24T08:32:20.539Z,1005.40
2018-08-24T08:33:20.523Z,1005.45
2018-08-24T08:34:20.508Z,1005.43
2018-08-24T08:35:20.493Z,1005.49
2018-08-24T08:36:20.474Z,1005.53
2018-08-24T08:37:20.456Z,1005.49
2018-08-24T08:38:20.440Z,1005.54
2018-08-24T08:39:20.424Z,1005.57
2018-08-24T08:40:20.409Z,1005.59
2018-08-24T08:41:20.399Z,1005.59
2018-08-24T08:42:20.378Z,1005.59
2018-08-24T08:43:20.358Z,1005.57
2018-08-24T08:44:20.343Z,1005.62
2018-08-24T08:45:20.398Z,1005.61
2018-08-24T08:46:20.309Z,1005.58
2018-08-24T08:47:20.294Z,1005.61
2018-08-24T08:48:20.278Z,1005.66
2018-08-24T08:49:20.259Z,1005.69
2018-08-24T08:50:20.247Z,1005.64
2018-08-24T08:51:20.227Z,1005.64
2018-08-24T08:52:20.222Z,1005.63
2018-08-24T08:53:20.218Z,1005.69
2018-08-24T08:54:20.182Z,1005.80
2018-08-24T08:55:20.163Z,1005.88
2018-08-24T08:56:20.152Z,1005.75
2018-08-24T08:57:20.131Z,1005.72
2018-08-24T08:58:20.117Z,1005.75
2018-08-24T08:59:20.099Z,1005.84
2018-08-24T09:00:20.082Z,1005.86
2018-08-24T09:01:20.069Z,1005.88
2018-08-24T09:02:20.062Z,1005.81
2018-08-24T09:03:20.049Z,1005.82
2018-08-24T09:04:20.019Z,1005.84
2018-08-24T09:05:20.008Z,1005.83
2018-08-24T09:06:20.016Z,1005.83
2018-08-24T09:07:19.975Z,1005.85
2018-08-24T09:08:19.958Z,1005.85
2018-08-24T09:09:19.937Z,1005.81
2018-08-24T09:10:19.922Z,1005.91
2018-08-24T09:11:19.903Z,1005.84
2018-08-24T09:12:19.892Z,1005.85
2018-08-24T09:13:19.873Z,1005.89
2018-08-24T09:14:19.863Z,1006.01
2018-08-24T09:15:19.840Z,1005.97
2018-08-24T09:16:19.830Z,1005.96
2018-08-24T09:17:19.807Z,1005.98
2018-08-24T09:18:19.796Z,1005.98
2018-08-24T09:19:19.778Z,1005.88
2018-08-24T09:20:19.761Z,1006.02
2018-08-24T09:21:19.751Z,1005.93
2018-08-24T09:22:19.738Z,1006.04
2018-08-24T09:23:19.712Z,1006.03
2018-08-24T09:24:19.696Z,1006.11
2018-08-24T09:25:19.704Z,1006.11
2018-08-24T09:26:19.667Z,1006.09
2018-08-24T09:27:19.648Z,1006.16
2018-08-24T09:28:19.639Z,1006.05
2018-08-24T09:29:19.623Z,1006.11
2018-08-24T09:30:19.605Z,1006.11
2018-08-24T09:31:19.588Z,1006.00
2018-08-24T09:32:19.627Z,1006.08
2018-08-24T09:33:19.560Z,1006.00
2018-08-24T09:34:19.549Z,1006.03
2018-08-24T09:35:19.531Z,1006.04
2018-08-24T09:36:19.509Z,1006.05
2018-08-24T09:37:19.499Z,1006.06
2018-08-24T09:38:19.486Z,1006.08
2018-08-24T09:39:19.464Z,1006.10
2018-08-24T09:40:19.458Z,1005.99
2018-08-24T09:41:19.436Z,1005.94
2018-08-24T09:42:19.418Z,1006.04
2018-08-24T09:43:19.409Z,1006.10
2018-08-24T09:44:19.434Z,1006.07
2018-08-24T09:45:19.376Z,1006.07
2018-08-24T09:46:19.361Z,1006.06
2018-08-24T09:47:19.344Z,1006.12
2018-08-24T09:48:19.333Z,1006.18
2018-08-24T09:49:19.316Z,1006.13
2018-08-24T09:50:19.303Z,1006.11
2018-08-24T09:51:19.282Z,1006.08
2018-08-24T09:52:19.278Z,1006.03
2018-08-24T09:53:19.255Z,1006.16
2018-08-24T09:54:19.236Z,1006.19
2018-08-24T09:55:19.220Z,1006.08
2018-08-24T09:56:19.208Z,1006.10
2018-08-24T09:57:19.190Z,1006.16
2018-08-24T09:58:19.182Z,1006.15
2018-08-24T09:59:19.172Z,1006.07
2018-08-24T10:00:19.144Z,1006.21
2018-08-24T10:01:19.140Z,1006.15
2018-08-24T10:02:19.113Z,1006.09
2018-08-24T10:03:19.096Z,1006.17
2018-08-24T10:04:19.084Z,1006.14
2018-08-24T10:05:19.087Z,1006.04
2018-08-24T10:06:19.073Z,1006.11
2018-08-24T10:07:19.034Z,1006.19
2018-08-24T10:08:19.019Z,1006.14
2018-08-24T10:09:19.011Z,1006.12
2018-08-24T10:10:18.991Z,1006.19
2018-08-24T10:11:18.971Z,1006.19
2018-08-24T10:12:18.957Z,1006.21
2018-08-24T10:13:18.957Z,1006.14
2018-08-24T10:14:18.931Z,1006.32
2018-08-24T10:15:18.910Z,1006.14
2018-08-24T10:16:18.895Z,1006.12
2018-08-24T10:17:18.882Z,1006.15
2018-08-24T10:18:18.864Z,1006.03
2018-08-24T10:19:18.850Z,1005.99
2018-08-24T10:20:18.834Z,1006.09
2018-08-24T10:21:18.822Z,1006.17
2018-08-24T10:22:18.805Z,1006.11
2018-08-24T10:23:18.788Z,1006.21
2018-08-24T10:24:18.776Z,1006.17
2018-08-24T10:25:18.758Z,1006.01
2018-08-24T10:26:18.743Z,1006.20
2018-08-24T10:27:18.726Z,1006.20
2018-08-24T10:28:18.714Z,1006.11
2018-08-24T10:29:18.779Z,1006.29
2018-08-24T10:30:18.686Z,1006.07
2018-08-24T10:31:18.667Z,1006.16
2018-08-24T10:32:18.653Z,1006.07
2018-08-24T10:33:18.646Z,1006.10
2018-08-24T10:34:18.624Z,1006.04
2018-08-24T10:35:18.607Z,1006.04
2018-08-24T10:36:18.593Z,1006.03
2018-08-24T10:37:18.583Z,1006.10
2018-08-24T10:38:18.569Z,1006.15
2018-08-24T10:39:18.554Z,1006.20
2018-08-24T10:40:18.539Z,1006.23
2018-08-24T10:41:18.522Z,1006.22
2018-08-24T10:42:18.509Z,1006.18
2018-08-24T10:43:18.490Z,1006.12
2018-08-24T10:44:18.474Z,1006.07
2018-08-24T10:45:18.478Z,1006.19
2018-08-24T10:46:18.447Z,1006.16
2018-08-24T10:47:18.456Z,1006.09
2018-08-24T10:48:18.431Z,1006.13
2018-08-24T10:49:18.456Z,1006.13
2018-08-24T10:50:18.396Z,1006.28
2018-08-24T10:51:18.383Z,1006.16
2018-08-24T10:52:18.359Z,1006.16
2018-08-24T10:53:18.344Z,1006.33
2018-08-24T10:54:18.330Z,1006.26
2018-08-24T10:55:18.322Z,1006.27
2018-08-24T10:56:18.308Z,1006.17
2018-08-24T10:57:18.284Z,1006.19
2018-08-24T10:58:18.272Z,1006.22
2018-08-24T10:59:18.278Z,1006.37
2018-08-24T11:00:18.246Z,1006.30
2018-08-24T11:01:18.230Z,1006.19
2018-08-24T11:02:18.211Z,1006.18
2018-08-24T11:03:18.204Z,1006.24
2018-08-24T11:04:18.181Z,1006.24
2018-08-24T11:05:18.179Z,1006.24
2018-08-24T11:06:18.187Z,1006.15
2018-08-24T11:07:18.252Z,1006.21
2018-08-24T11:08:18.126Z,1006.27
2018-08-24T11:09:18.109Z,1006.20
2018-08-24T11:10:18.091Z,1006.17
2018-08-24T11:11:18.080Z,1006.17
2018-08-24T11:12:18.060Z,1006.19
2018-08-24T11:13:18.050Z,1006.24
2018-08-24T11:14:18.030Z,1006.27
2018-08-24T11:15:18.019Z,1006.10
2018-08-24T11:16:17.998Z,1006.12
2018-08-24T11:17:17.989Z,1006.18
2018-08-24T11:18:17.968Z,1006.16
2018-08-24T11:19:17.956Z,1006.32
2018-08-24T11:20:17.936Z,1006.31
2018-08-24T11:21:17.921Z,1006.28
2018-08-24T11:22:17.906Z,1006.29
2018-08-24T11:23:17.902Z,1006.29
2018-08-24T11:24:17.875Z,1006.34
2018-08-24T11:25:17.858Z,1006.23
2018-08-24T11:26:17.904Z,1006.25
2018-08-24T11:27:17.837Z,1006.13
2018-08-24T11:28:17.817Z,1006.34
2018-08-24T11:29:17.864Z,1006.37
2018-08-24T11:30:17.787Z,1006.37
2018-08-24T11:31:17.767Z,1006.23
2018-08-24T11:32:17.751Z,1006.26
2018-08-24T11:33:17.752Z,1006.39
2018-08-24T11:34:17.723Z,1006.32
2018-08-24T11:35:17.709Z,1006.44
2018-08-24T11:36:17.783Z,1006.26
2018-08-24T11:37:17.679Z,1006.20
2018-08-24T11:38:17.668Z,1006.25
2018-08-24T11:39:17.652Z,1006.24
2018-08-24T11:40:17.635Z,1006.18
2018-08-24T11:41:17.617Z,1006.28
2018-08-24T11:42:17.716Z,1006.25
2018-08-24T11:43:17.602Z,1006.38
2018-08-24T11:44:17.571Z,1006.33
2018-08-24T11:45:17.565Z,1006.20
2018-08-24T11:46:17.555Z,1006.14
2018-08-24T11:47:17.530Z,1006.28
2018-08-24T11:48:17.517Z,1006.48
2018-08-24T11:49:17.498Z,1006.24
2018-08-24T11:50:17.490Z,1006.25
2018-08-24T11:51:17.479Z,1006.23
2018-08-24T11:52:17.455Z,1006.30
2018-08-24T11:53:17.443Z,1006.40
2018-08-24T11:54:17.436Z,1006.26
2018-08-24T11:55:17.407Z,1006.38
2018-08-24T11:56:17.395Z,1006.31
2018-08-24T11:57:17.377Z,1006.36
2018-08-24T11:58:17.365Z,1006.21
2018-08-24T11:59:17.354Z,1006.20
2018-08-24T12:00:17.336Z,1006.14
2018-08-24T12:01:17.317Z,1006.13
2018-08-24T12:02:17.301Z,1006.17
2018-08-24T12:03:17.293Z,1006.20
2018-08-24T12:04:17.285Z,1006.22
2018-08-24T12:05:17.256Z,1006.27